Time;durP1;ratioP1;P1;durP2;ratioP2;P2;SDS_P1;SDS_P2;PMS_P1;PMS_P2;Temp;Humidity;BMP_temperature;BMP_pressure;BME280_temperature;BME280_humidity;BME280_pressure;Samples;Min_cycle;Max_cycle;Signal;HPM_P1;HPM_P2
2022/06/29 00:02:23;;;;;;;6.10;3.35;;;;;;;;;;5052031;28;20067;-73
2022/06/29 00:04:49;;;;;;;6.30;3.30;;;;;;;;;;5034099;28;20402;-74
2022/06/29 00:07:15;;;;;;;5.85;3.25;;;;;;;;;;5051983;28;20064;-74
2022/06/29 00:09:41;;;;;;;6.45;3.20;;;;;;;;;;5052068;28;20103;-74
2022/06/29 00:12:07;;;;;;;8.32;3.30;;;;;;;;;;5051915;28;20387;-74
2022/06/29 00:14:41;;;;;;;7.60;3.08;;;;;;;;;;5052491;28;20082;-75
2022/06/29 00:17:08;;;;;;;4.47;2.70;;;;;;;;;;5053382;28;20017;-75
2022/06/29 00:19:33;;;;;;;6.28;2.47;;;;;;;;;;5037656;28;20367;-75
2022/06/29 00:21:59;;;;;;;8.65;2.35;;;;;;;;;;5055914;28;20032;-75
2022/06/29 00:24:25;;;;;;;6.03;3.00;;;;;;;;;;5037155;28;20029;-76
2022/06/29 00:26:51;;;;;;;5.13;2.70;;;;;;;;;;5054689;28;20118;-74
2022/06/29 00:29:17;;;;;;;9.52;2.80;;;;;;;;;;5055774;28;20025;-75
2022/06/29 00:31:43;;;;;;;5.53;3.15;;;;;;;;;;5056026;28;20025;-75
2022/06/29 00:34:09;;;;;;;5.22;2.95;;;;;;;;;;5039402;28;20073;-75
2022/06/29 00:36:35;;;;;;;5.45;2.47;;;;;;;;;;5035178;28;20029;-75
2022/06/29 00:39:01;;;;;;;5.65;2.83;;;;;;;;;;5051815;28;20027;-74
2022/06/29 00:41:27;;;;;;;5.18;2.92;;;;;;;;;;5052104;28;20041;-75
2022/06/29 00:43:53;;;;;;;7.45;2.40;;;;;;;;;;5051712;28;20035;-74
2022/06/29 00:46:19;;;;;;;9.50;2.60;;;;;;;;;;5051472;28;20068;-74
2022/06/29 00:48:45;;;;;;;4.10;2.30;;;;;;;;;;5033807;28;20017;-75
2022/06/29 00:51:12;;;;;;;6.82;2.70;;;;;;;;;;5051469;28;20051;-76
2022/06/29 00:53:41;;;;;;;7.75;2.85;;;;;;;;;;5051726;28;20052;-74
2022/06/29 00:56:11;;;;;;;2.97;2.40;;;;;;;;;;5052108;28;20044;-75
2022/06/29 00:58:38;;;;;;;4.57;2.53;;;;;;;;;;5055628;28;20115;-73
2022/06/29 01:01:04;;;;;;;5.30;2.95;;;;;;;;;;5037843;28;20033;-75
2022/06/29 01:03:32;;;;;;;5.78;2.60;;;;;;;;;;5055566;28;20021;-76
2022/06/29 01:05:58;;;;;;;7.22;2.85;;;;;;;;;;5055340;28;20115;-76
2022/06/29 01:08:24;;;;;;;4.80;2.53;;;;;;;;;;5055644;28;20036;-75
2022/06/29 01:10:50;;;;;;;3.72;2.35;;;;;;;;;;5055300;28;20021;-75
2022/06/29 01:13:16;;;;;;;6.88;2.60;;;;;;;;;;5055497;28;20428;-75
2022/06/29 01:15:43;;;;;;;5.18;2.92;;;;;;;;;;5037664;28;20407;-75
2022/06/29 01:18:09;;;;;;;5.03;2.67;;;;;;;;;;5056045;28;20021;-74
2022/06/29 01:20:35;;;;;;;7.00;2.80;;;;;;;;;;5055637;28;20110;-74
2022/06/29 01:23:01;;;;;;;7.75;2.30;;;;;;;;;;5055157;28;20029;-75
2022/06/29 01:25:27;;;;;;;6.97;2.58;;;;;;;;;;5054979;28;20024;-73
2022/06/29 01:27:53;;;;;;;6.88;2.70;;;;;;;;;;5037481;28;20494;-74
2022/06/29 01:30:19;;;;;;;6.30;2.97;;;;;;;;;;5037267;28;20041;-75
2022/06/29 01:32:45;;;;;;;6.38;2.97;;;;;;;;;;5055178;28;20096;-75
2022/06/29 01:35:12;;;;;;;5.20;2.38;;;;;;;;;;5054936;28;20511;-74
2022/06/29 01:37:39;;;;;;;5.25;2.67;;;;;;;;;;5055158;28;20064;-73
2022/06/29 01:40:05;;;;;;;4.40;2.50;;;;;;;;;;5054819;28;20029;-76
2022/06/29 01:42:31;;;;;;;5.32;2.70;;;;;;;;;;5054570;28;20036;-76
2022/06/29 01:44:57;;;;;;;4.50;2.50;;;;;;;;;;5055138;28;20377;-75
2022/06/29 01:47:23;;;;;;;5.15;2.58;;;;;;;;;;5055629;28;20452;-74
2022/06/29 01:49:49;;;;;;;10.85;2.80;;;;;;;;;;5056377;28;20029;-76
2022/06/29 01:52:15;;;;;;;4.72;2.60;;;;;;;;;;5054452;28;20079;-76
2022/06/29 01:54:41;;;;;;;5.90;2.88;;;;;;;;;;5053583;28;20025;-77
2022/06/29 01:57:07;;;;;;;3.88;2.47;;;;;;;;;;5054299;28;20107;-73
2022/06/29 01:59:33;;;;;;;6.97;2.80;;;;;;;;;;5036399;28;20036;-75
2022/06/29 02:01:59;;;;;;;9.65;2.78;;;;;;;;;;5054583;28;20033;-75
2022/06/29 02:04:25;;;;;;;5.88;2.70;;;;;;;;;;5054410;28;20382;-75
2022/06/29 02:06:51;;;;;;;5.65;2.80;;;;;;;;;;5036209;28;20025;-74
2022/06/29 02:09:17;;;;;;;5.05;2.80;;;;;;;;;;5053076;28;20027;-77
2022/06/29 02:11:42;;;;;;;5.07;2.72;;;;;;;;;;5036246;28;20044;-75
2022/06/29 02:14:09;;;;;;;5.78;2.95;;;;;;;;;;5055587;28;20028;-74
2022/06/29 02:16:35;;;;;;;6.90;2.85;;;;;;;;;;5058464;28;20055;-73
2022/06/29 02:19:01;;;;;;;4.15;2.40;;;;;;;;;;5057718;28;20032;-75
2022/06/29 02:21:27;;;;;;;5.82;2.67;;;;;;;;;;5059891;28;20029;-74
2022/06/29 02:23:53;;;;;;;5.53;2.47;;;;;;;;;;5053835;28;20025;-75
2022/06/29 02:26:19;;;;;;;6.28;2.70;;;;;;;;;;5053186;28;20056;-73
2022/06/29 02:28:45;;;;;;;3.80;2.55;;;;;;;;;;5053991;28;20451;-74
2022/06/29 02:36:40;;;;;;;6.22;2.47;;;;;;;;;;5053504;28;20036;-75
2022/06/29 02:39:06;;;;;;;5.10;2.95;;;;;;;;;;5054466;28;20394;-75
2022/06/29 02:41:32;;;;;;;6.85;2.97;;;;;;;;;;5053037;28;20498;-76
2022/06/29 02:43:58;;;;;;;9.50;2.70;;;;;;;;;;5053586;28;20024;-74
2022/06/29 02:46:24;;;;;;;4.88;2.60;;;;;;;;;;5052846;28;20033;-74
2022/06/29 02:48:50;;;;;;;5.22;2.80;;;;;;;;;;5053185;28;20033;-75
2022/06/29 02:51:16;;;;;;;6.43;2.63;;;;;;;;;;5052798;28;20162;-74
2022/06/29 02:53:42;;;;;;;4.68;2.42;;;;;;;;;;5035218;28;20048;-74
2022/06/29 02:56:08;;;;;;;6.28;2.72;;;;;;;;;;5053064;28;20116;-74
2022/06/29 02:58:34;;;;;;;8.45;2.80;;;;;;;;;;5053553;28;20029;-74
2022/06/29 03:01:00;;;;;;;6.78;2.85;;;;;;;;;;5054105;28;20036;-75
2022/06/29 03:03:26;;;;;;;10.38;2.70;;;;;;;;;;5057445;28;20108;-75
2022/06/29 03:05:52;;;;;;;6.65;2.78;;;;;;;;;;5053268;28;20386;-73
2022/06/29 03:08:18;;;;;;;7.78;2.42;;;;;;;;;;5053038;28;20433;-74
2022/06/29 03:10:44;;;;;;;4.05;2.50;;;;;;;;;;5052625;28;20104;-75
2022/06/29 03:13:10;;;;;;;4.43;2.30;;;;;;;;;;5053216;28;20159;-75
2022/06/29 03:15:36;;;;;;;7.00;2.88;;;;;;;;;;5052545;28;20024;-74
2022/06/29 03:18:02;;;;;;;8.00;3.35;;;;;;;;;;5052708;28;20053;-75
2022/06/29 03:20:28;;;;;;;5.03;3.13;;;;;;;;;;5052669;28;20104;-74
2022/06/29 03:22:54;;;;;;;4.72;2.70;;;;;;;;;;5053202;28;20132;-75
2022/06/29 03:25:20;;;;;;;8.82;2.70;;;;;;;;;;5052658;28;20084;-75
2022/06/29 03:27:45;;;;;;;5.50;2.63;;;;;;;;;;5053775;28;20025;-75
2022/06/29 03:30:12;;;;;;;4.97;2.80;;;;;;;;;;5060779;28;20025;-75
2022/06/29 03:32:38;;;;;;;8.30;3.30;;;;;;;;;;5058934;28;20051;-76
2022/06/29 03:35:05;;;;;;;5.10;2.65;;;;;;;;;;5062609;28;20028;-74
2022/06/29 03:37:31;;;;;;;5.38;2.70;;;;;;;;;;5062437;28;20032;-74
2022/06/29 03:39:57;;;;;;;5.65;3.03;;;;;;;;;;5068000;28;20032;-73
2022/06/29 03:42:23;;;;;;;10.95;5.43;;;;;;;;;;5067220;28;20037;-73
2022/06/29 03:44:49;;;;;;;4.40;2.78;;;;;;;;;;5051136;28;20047;-73
2022/06/29 03:47:15;;;;;;;9.82;4.10;;;;;;;;;;5070176;28;20029;-73
2022/06/29 03:49:41;;;;;;;7.88;2.85;;;;;;;;;;5063093;28;20021;-74
2022/06/29 03:52:07;;;;;;;5.95;3.63;;;;;;;;;;5052417;28;20028;-73
2022/06/29 03:54:33;;;;;;;6.50;3.20;;;;;;;;;;5052552;28;20021;-75
2022/06/29 03:56:59;;;;;;;4.93;2.63;;;;;;;;;;5052211;28;20393;-75
2022/06/29 03:59:25;;;;;;;6.57;3.47;;;;;;;;;;5052551;28;20036;-75
2022/06/29 04:01:51;;;;;;;6.65;2.92;;;;;;;;;;5052183;28;20067;-74
2022/06/29 04:04:17;;;;;;;8.52;2.85;;;;;;;;;;5053252;28;20055;-74
2022/06/29 04:06:43;;;;;;;4.72;2.70;;;;;;;;;;5052395;28;20021;-75
2022/06/29 04:09:09;;;;;;;10.10;2.85;;;;;;;;;;5053323;28;20025;-75
2022/06/29 04:11:54;;;;;;;7.53;2.67;;;;;;;;;;5052702;28;20047;-76
2022/06/29 04:14:20;;;;;;;3.10;2.25;;;;;;;;;;5034484;28;20021;-76
2022/06/29 04:16:46;;;;;;;10.75;3.80;;;;;;;;;;5052150;28;20437;-75
2022/06/29 04:19:12;;;;;;;10.43;4.50;;;;;;;;;;5052041;28;20021;-75
2022/06/29 04:21:38;;;;;;;9.40;4.30;;;;;;;;;;5051695;28;20116;-74
2022/06/29 04:24:05;;;;;;;7.22;3.78;;;;;;;;;;5052061;28;20071;-74
2022/06/29 04:26:31;;;;;;;8.27;2.78;;;;;;;;;;5051552;28;20043;-73
2022/06/29 04:28:57;;;;;;;5.22;2.60;;;;;;;;;;5052180;28;20537;-75
2022/06/29 04:31:23;;;;;;;6.55;2.42;;;;;;;;;;5053123;28;20025;-75
2022/06/29 04:33:49;;;;;;;8.82;3.28;;;;;;;;;;5056198;28;20100;-75
2022/06/29 04:36:15;;;;;;;5.70;3.13;;;;;;;;;;5055985;28;20085;-76
2022/06/29 04:38:41;;;;;;;3.50;2.55;;;;;;;;;;5056293;28;20513;-75
2022/06/29 04:41:07;;;;;;;6.40;3.20;;;;;;;;;;5056386;28;20040;-74
2022/06/29 04:43:33;;;;;;;5.00;2.80;;;;;;;;;;5055918;28;20630;-76
2022/06/29 04:48:44;;;;;;;6.78;2.55;;;;;;;;;;5058359;28;20390;-76
2022/06/29 04:51:10;;;;;;;5.43;2.65;;;;;;;;;;5055960;28;20066;-74
2022/06/29 04:53:36;;;;;;;9.82;3.53;;;;;;;;;;5056487;28;20040;-75
2022/06/29 04:56:02;;;;;;;5.53;2.65;;;;;;;;;;5056007;28;20033;-74
2022/06/29 04:58:28;;;;;;;5.07;2.67;;;;;;;;;;5058366;28;20497;-79
2022/06/29 05:00:54;;;;;;;5.32;2.72;;;;;;;;;;5058211;28;20025;-76
2022/06/29 05:03:20;;;;;;;9.10;3.50;;;;;;;;;;5056223;28;20064;-75
2022/06/29 05:05:47;;;;;;;5.10;2.33;;;;;;;;;;5056456;28;20052;-76
2022/06/29 05:08:14;;;;;;;7.13;2.50;;;;;;;;;;5056861;28;20028;-76
2022/06/29 05:10:40;;;;;;;5.93;2.53;;;;;;;;;;5056660;28;20045;-75
2022/06/29 05:13:08;;;;;;;6.80;2.58;;;;;;;;;;5056495;28;20017;-75
2022/06/29 05:15:34;;;;;;;6.45;1.92;;;;;;;;;;5056474;28;20381;-77
2022/06/29 05:18:00;;;;;;;8.75;3.05;;;;;;;;;;5038763;28;20025;-76
2022/06/29 05:20:26;;;;;;;8.05;2.30;;;;;;;;;;5057990;28;20100;-77
2022/06/29 05:22:52;;;;;;;5.68;2.38;;;;;;;;;;5041012;28;20029;-75
2022/06/29 05:25:19;;;;;;;8.57;2.60;;;;;;;;;;5056726;28;20029;-75
2022/06/29 05:27:45;;;;;;;9.27;2.20;;;;;;;;;;5056579;28;20025;-76
2022/06/29 05:30:11;;;;;;;3.85;2.00;;;;;;;;;;5056798;28;20029;-75
2022/06/29 05:32:37;;;;;;;2.55;1.88;;;;;;;;;;5055456;28;20021;-75
2022/06/29 05:35:03;;;;;;;5.40;1.90;;;;;;;;;;5056048;28;20036;-76
2022/06/29 05:37:29;;;;;;;3.60;1.77;;;;;;;;;;5055672;28;20025;-76
2022/06/29 05:39:55;;;;;;;6.85;2.00;;;;;;;;;;5038045;28;20082;-75
2022/06/29 05:42:21;;;;;;;4.60;1.95;;;;;;;;;;5055899;28;20024;-75
2022/06/29 05:44:47;;;;;;;5.30;2.20;;;;;;;;;;5055445;28;20403;-75
2022/06/29 05:47:14;;;;;;;6.53;1.80;;;;;;;;;;5055282;28;20052;-77
2022/06/29 05:49:40;;;;;;;3.55;1.60;;;;;;;;;;5055124;28;20481;-76
2022/06/29 05:52:06;;;;;;;2.72;1.40;;;;;;;;;;5055234;28;20183;-74
2022/06/29 05:54:32;;;;;;;3.75;1.58;;;;;;;;;;5055367;28;20099;-75
2022/06/29 05:56:58;;;;;;;5.90;1.65;;;;;;;;;;5056942;28;20043;-76
2022/06/29 05:59:24;;;;;;;7.53;1.45;;;;;;;;;;5057365;28;20025;-78
2022/06/29 06:01:50;;;;;;;4.25;1.98;;;;;;;;;;5061951;28;20032;-77
2022/06/29 06:04:16;;;;;;;4.13;1.70;;;;;;;;;;5055423;28;20021;-77
2022/06/29 06:06:42;;;;;;;11.25;1.50;;;;;;;;;;5055408;28;20084;-75
2022/06/29 06:09:08;;;;;;;4.10;1.70;;;;;;;;;;5055004;28;20021;-77
2022/06/29 06:11:35;;;;;;;14.68;2.97;;;;;;;;;;5040153;28;20017;-77
2022/06/29 06:14:01;;;;;;;5.53;2.60;;;;;;;;;;5058192;28;20059;-76
2022/06/29 06:16:27;;;;;;;4.50;1.85;;;;;;;;;;5056007;28;20025;-77
2022/06/29 06:18:53;;;;;;;1.98;1.50;;;;;;;;;;5037476;28;20029;-77
2022/06/29 06:21:19;;;;;;;4.10;1.67;;;;;;;;;;5057160;28;20061;-78
2022/06/29 06:23:45;;;;;;;3.78;1.35;;;;;;;;;;5056087;28;20068;-76
2022/06/29 06:26:11;;;;;;;6.07;1.50;;;;;;;;;;5055133;28;20104;-76
2022/06/29 06:28:37;;;;;;;4.05;1.55;;;;;;;;;;5055478;28;20481;-76
2022/06/29 06:31:03;;;;;;;4.20;1.52;;;;;;;;;;5036623;28;20160;-76
2022/06/29 06:33:29;;;;;;;5.53;1.75;;;;;;;;;;5055377;28;20486;-75
2022/06/29 06:35:55;;;;;;;2.88;1.30;;;;;;;;;;5058006;28;20475;-77
2022/06/29 06:38:21;;;;;;;6.60;1.65;;;;;;;;;;5065094;28;20029;-76
2022/06/29 06:43:22;;;;;;;3.40;1.75;;;;;;;;;;5056314;28;20069;-78
2022/06/29 06:45:47;;;;;;;6.93;2.08;;;;;;;;;;5055309;28;20087;-76
2022/06/29 06:48:13;;;;;;;8.40;1.95;;;;;;;;;;5056053;28;20425;-75
2022/06/29 06:50:39;;;;;;;7.40;1.55;;;;;;;;;;5054958;28;20028;-76
2022/06/29 06:53:05;;;;;;;4.18;1.42;;;;;;;;;;5054748;28;20119;-76
2022/06/29 06:55:31;;;;;;;6.57;1.58;;;;;;;;;;5054366;28;20366;-76
2022/06/29 06:57:57;;;;;;;3.80;1.50;;;;;;;;;;5055097;28;20029;-76
2022/06/29 07:00:23;;;;;;;6.15;1.40;;;;;;;;;;5056096;28;20029;-78
2022/06/29 07:02:49;;;;;;;6.45;2.10;;;;;;;;;;5054062;28;20025;-76
2022/06/29 07:05:17;;;;;;;5.45;2.15;;;;;;;;;;5055507;28;20064;-76
2022/06/29 07:07:43;;;;;;;10.93;1.63;;;;;;;;;;5056967;28;20050;-76
2022/06/29 07:10:09;;;;;;;5.18;1.75;;;;;;;;;;5057023;28;20029;-77
2022/06/29 07:12:35;;;;;;;6.90;1.70;;;;;;;;;;5056782;28;20025;-77
2022/06/29 07:15:01;;;;;;;2.47;1.60;;;;;;;;;;5056768;28;20021;-75
2022/06/29 07:17:27;;;;;;;4.25;1.70;;;;;;;;;;5056831;28;20021;-76
2022/06/29 07:19:53;;;;;;;4.30;1.75;;;;;;;;;;5057593;28;20458;-77
2022/06/29 07:22:19;;;;;;;5.53;2.33;;;;;;;;;;5058071;28;20025;-76
2022/06/29 07:24:45;;;;;;;4.28;1.65;;;;;;;;;;5054652;28;20045;-76
2022/06/29 07:27:12;;;;;;;2.67;1.70;;;;;;;;;;5056632;28;20025;-77
2022/06/29 07:29:38;;;;;;;9.45;2.35;;;;;;;;;;5056798;28;20021;-76
2022/06/29 07:32:04;;;;;;;6.93;2.17;;;;;;;;;;5054446;28;20025;-75
2022/06/29 07:34:30;;;;;;;10.57;2.30;;;;;;;;;;5054039;28;20025;-77
2022/06/29 07:36:56;;;;;;;7.40;2.15;;;;;;;;;;5054116;28;20052;-76
2022/06/29 07:39:22;;;;;;;6.45;1.55;;;;;;;;;;5054129;28;20100;-77
2022/06/29 07:41:48;;;;;;;6.00;1.65;;;;;;;;;;5054093;28;20147;-75
2022/06/29 07:44:14;;;;;;;7.10;2.13;;;;;;;;;;5054816;28;20588;-75
2022/06/29 07:46:40;;;;;;;5.95;1.85;;;;;;;;;;5053652;28;20029;-75
2022/06/29 07:49:06;;;;;;;4.10;1.83;;;;;;;;;;5054403;28;20088;-74
2022/06/29 07:51:32;;;;;;;5.40;1.88;;;;;;;;;;5054195;28;20021;-75
2022/06/29 07:53:58;;;;;;;6.05;1.80;;;;;;;;;;5054039;28;20081;-75
2022/06/29 07:56:24;;;;;;;5.00;1.60;;;;;;;;;;5053527;28;20025;-75
2022/06/29 07:58:50;;;;;;;3.22;1.77;;;;;;;;;;5053638;28;20107;-74
2022/06/29 08:01:15;;;;;;;7.00;1.95;;;;;;;;;;5054754;28;20028;-75
2022/06/29 08:03:41;;;;;;;6.38;2.00;;;;;;;;;;5053925;28;20405;-75
2022/06/29 08:06:07;;;;;;;8.20;2.13;;;;;;;;;;5051614;28;20029;-75
2022/06/29 08:08:33;;;;;;;5.93;2.13;;;;;;;;;;5052911;28;20470;-75
2022/06/29 08:10:59;;;;;;;4.45;1.77;;;;;;;;;;5041655;28;20122;-76
2022/06/29 08:13:25;;;;;;;3.90;1.67;;;;;;;;;;5033376;28;20049;-76
2022/06/29 08:15:51;;;;;;;7.07;1.90;;;;;;;;;;5032317;28;20022;-74
2022/06/29 08:18:17;;;;;;;7.68;2.30;;;;;;;;;;5033794;28;20449;-75
2022/06/29 08:20:43;;;;;;;6.07;2.45;;;;;;;;;;5033156;28;20041;-76
2022/06/29 08:23:10;;;;;;;7.00;2.00;;;;;;;;;;5032606;28;20021;-76
2022/06/29 08:25:36;;;;;;;10.50;2.15;;;;;;;;;;5032280;28;20390;-75
2022/06/29 08:28:02;;;;;;;7.25;1.80;;;;;;;;;;5031990;28;20045;-77
2022/06/29 08:30:28;;;;;;;10.57;2.15;;;;;;;;;;5032629;28;20028;-77
2022/06/29 08:32:54;;;;;;;3.78;1.52;;;;;;;;;;5030991;28;20025;-76
2022/06/29 08:35:20;;;;;;;3.90;1.95;;;;;;;;;;5033620;28;20078;-75
2022/06/29 08:37:47;;;;;;;5.13;1.90;;;;;;;;;;5034804;28;20111;-75
2022/06/29 08:40:16;;;;;;;5.00;1.70;;;;;;;;;;5049553;28;20029;-75
2022/06/29 08:42:42;;;;;;;6.55;2.00;;;;;;;;;;5036352;28;20034;-74
2022/06/29 08:45:10;;;;;;;6.28;2.40;;;;;;;;;;5033649;28;20075;-74
2022/06/29 08:47:36;;;;;;;5.78;2.00;;;;;;;;;;5033010;28;20022;-74
2022/06/29 08:50:06;;;;;;;2.22;1.60;;;;;;;;;;5034719;28;20413;-76
2022/06/29 08:52:34;;;;;;;8.98;3.15;;;;;;;;;;5033918;28;20096;-78
2022/06/29 08:55:01;;;;;;;3.67;2.10;;;;;;;;;;5033959;28;20021;-76
2022/06/29 08:57:27;;;;;;;7.05;3.72;;;;;;;;;;5032912;28;20025;-76
2022/06/29 08:59:54;;;;;;;12.40;2.50;;;;;;;;;;5034915;28;20105;-77
2022/06/29 09:02:20;;;;;;;4.30;1.85;;;;;;;;;;5035657;28;20127;-76
2022/06/29 09:04:46;;;;;;;6.18;2.38;;;;;;;;;;5036764;28;20036;-76
2022/06/29 09:07:12;;;;;;;3.30;2.10;;;;;;;;;;5038378;28;20057;-76
2022/06/29 09:09:58;;;;;;;3.63;2.78;;;;;;;;;;5033976;28;20021;-74
2022/06/29 09:12:26;;;;;;;4.13;1.85;;;;;;;;;;5034520;28;20068;-76
2022/06/29 09:14:52;;;;;;;6.10;3.08;;;;;;;;;;5039357;28;20018;-76
2022/06/29 09:17:18;;;;;;;3.58;2.10;;;;;;;;;;5037083;28;20462;-78
2022/06/29 09:19:45;;;;;;;10.80;4.78;;;;;;;;;;5037142;28;20022;-77
2022/06/29 09:22:11;;;;;;;9.57;3.78;;;;;;;;;;5036517;28;20028;-71
2022/06/29 09:24:37;;;;;;;6.95;2.45;;;;;;;;;;5036225;28;20030;-77
2022/06/29 09:27:07;;;;;;;4.03;1.92;;;;;;;;;;5036783;28;20033;-76
2022/06/29 09:29:39;;;;;;;4.82;1.92;;;;;;;;;;5037109;28;20383;-78
2022/06/29 09:32:08;;;;;;;5.05;2.13;;;;;;;;;;5036633;28;20022;-77
2022/06/29 09:34:42;;;;;;;7.85;1.90;;;;;;;;;;5033491;28;20902;-76
2022/06/29 09:37:09;;;;;;;3.63;1.95;;;;;;;;;;5035011;28;20116;-74
2022/06/29 09:39:39;;;;;;;9.02;2.05;;;;;;;;;;5035349;28;20057;-74
2022/06/29 09:42:08;;;;;;;3.85;1.85;;;;;;;;;;5035646;28;20029;-75
2022/06/29 09:44:34;;;;;;;4.63;1.80;;;;;;;;;;5036126;28;20041;-75
2022/06/29 09:47:03;;;;;;;2.47;1.65;;;;;;;;;;5035938;28;20430;-73
2022/06/29 09:49:29;;;;;;;11.65;4.47;;;;;;;;;;5039633;28;20028;-77
2022/06/29 09:51:56;;;;;;;7.55;2.22;;;;;;;;;;5036952;28;20083;-77
2022/06/29 09:54:26;;;;;;;9.18;2.38;;;;;;;;;;5039070;28;20028;-76
2022/06/29 09:56:55;;;;;;;7.15;2.33;;;;;;;;;;5036423;28;20677;-77
2022/06/29 10:05:00;;;;;;;2.97;2.42;;;;;;;;;;5036030;28;20039;-76
2022/06/29 10:07:27;;;;;;;2.78;1.80;;;;;;;;;;5035754;28;20398;-77
2022/06/29 10:09:53;;;;;;;3.58;2.67;;;;;;;;;;5036262;28;20481;-77
2022/06/29 10:15:13;;;;;;;5.57;2.10;;;;;;;;;;5035237;28;20036;-72
2022/06/29 10:17:45;;;;;;;3.17;1.88;;;;;;;;;;5035481;28;20026;-76
2022/06/29 10:20:25;;;;;;;6.45;2.40;;;;;;;;;;5035396;28;20032;-77
2022/06/29 10:22:51;;;;;;;6.00;2.22;;;;;;;;;;5036450;28;20391;-78
2022/06/29 10:25:18;;;;;;;6.10;2.33;;;;;;;;;;5043252;28;20021;-76
2022/06/29 10:28:07;;;;;;;2.53;2.00;;;;;;;;;;5055407;28;20013;-77
2022/06/29 10:30:33;;;;;;;4.68;1.92;;;;;;;;;;5048002;28;20076;-76
2022/06/29 10:33:18;;;;;;;6.80;2.30;;;;;;;;;;5049193;28;20055;-79
2022/06/29 10:36:09;;;;;;;4.70;2.70;;;;;;;;;;5047516;28;20048;-75
2022/06/29 10:38:55;;;;;;;7.78;2.30;;;;;;;;;;5048336;28;20025;-76
2022/06/29 10:44:07;;;;;;;3.70;2.00;;;;;;;;;;5059294;28;20520;-75
2022/06/29 10:47:00;;;;;;;4.78;1.67;;;;;;;;;;5048949;28;20021;-76
2022/06/29 10:49:26;;;;;;;5.22;2.30;;;;;;;;;;5048799;28;20033;-77
2022/06/29 10:51:53;;;;;;;5.35;2.00;;;;;;;;;;5044689;28;20470;-76
2022/06/29 10:54:23;;;;;;;2.97;1.70;;;;;;;;;;5042233;28;20021;-76
2022/06/29 10:56:49;;;;;;;6.20;2.03;;;;;;;;;;5047868;28;20031;-76
2022/06/29 10:59:33;;;;;;;5.57;1.90;;;;;;;;;;5045946;28;20021;-76
2022/06/29 11:01:59;;;;;;;;;;;;;;;;;;5054627;28;20551;-76
2022/06/29 11:04:25;;;;;;;6.10;1.98;;;;;;;;;;5050342;28;19908;-76
2022/06/29 11:12:32;;;;;;;4.75;2.30;;;;;;;;;;5046170;28;20032;-76
2022/06/29 11:17:48;;;;;;;3.42;2.55;;;;;;;;;;5044637;28;20060;-76
2022/06/29 11:20:18;;;;;;;17.58;7.38;;;;;;;;;;5040765;28;20035;-76
2022/06/29 11:22:51;;;;;;;3.67;1.90;;;;;;;;;;5046408;28;20025;-77
2022/06/29 11:25:18;;;;;;;9.52;5.30;;;;;;;;;;5041158;28;20079;-77
2022/06/29 11:27:43;;;;;;;7.63;2.22;;;;;;;;;;5046719;28;20490;-76
2022/06/29 11:30:11;;;;;;;3.53;1.98;;;;;;;;;;5053606;28;20421;-77
2022/06/29 11:32:42;;;;;;;7.75;2.08;;;;;;;;;;5052262;28;20028;-77
2022/06/29 11:35:09;;;;;;;9.40;2.28;;;;;;;;;;5037579;28;20022;-75
2022/06/29 11:37:35;;;;;;;9.48;1.88;;;;;;;;;;5034342;28;20021;-76
2022/06/29 11:40:01;;;;;;;7.68;4.80;;;;;;;;;;5035601;28;20022;-77
2022/06/29 11:45:19;;;;;;;3.92;1.80;;;;;;;;;;5037270;28;20060;-74
2022/06/29 11:47:55;;;;;;;5.38;2.08;;;;;;;;;;5035094;28;20025;-77
2022/06/29 11:50:24;;;;;;;8.02;4.40;;;;;;;;;;5034252;28;20036;-76
2022/06/29 11:52:50;;;;;;;10.38;2.05;;;;;;;;;;5034175;28;20041;-76
2022/06/29 11:55:16;;;;;;;4.95;1.98;;;;;;;;;;5032792;28;20021;-76
2022/06/29 11:57:43;;;;;;;4.93;2.10;;;;;;;;;;5034084;28;20143;-77
2022/06/29 12:00:09;;;;;;;14.88;2.70;;;;;;;;;;5034953;28;20021;-76
2022/06/29 12:02:35;;;;;;;7.72;1.65;;;;;;;;;;5032665;28;20529;-76
2022/06/29 12:05:02;;;;;;;3.72;1.85;;;;;;;;;;5032956;28;20021;-76
2022/06/29 12:07:29;;;;;;;6.43;2.00;;;;;;;;;;5032593;28;20569;-75
2022/06/29 12:09:55;;;;;;;2.67;1.65;;;;;;;;;;5032050;28;20382;-76
2022/06/29 12:12:21;;;;;;;4.28;1.67;;;;;;;;;;5033342;28;20052;-76
2022/06/29 12:14:47;;;;;;;5.80;2.15;;;;;;;;;;5035690;28;20025;-76
2022/06/29 12:17:14;;;;;;;6.80;2.95;;;;;;;;;;5035114;28;20030;-77
2022/06/29 12:19:40;;;;;;;6.60;1.95;;;;;;;;;;5034845;28;20033;-76
2022/06/29 12:22:06;;;;;;;5.55;2.58;;;;;;;;;;5034008;28;20070;-77
2022/06/29 12:24:32;;;;;;;7.35;1.75;;;;;;;;;;5033233;28;20025;-76
2022/06/29 12:26:59;;;;;;;7.15;1.60;;;;;;;;;;5033320;28;20025;-75
2022/06/29 12:29:25;;;;;;;9.85;1.77;;;;;;;;;;5034477;28;20529;-75
2022/06/29 12:31:51;;;;;;;4.22;1.50;;;;;;;;;;5033738;28;20029;-76
2022/06/29 12:34:17;;;;;;;4.05;1.52;;;;;;;;;;5033205;28;20030;-76
2022/06/29 12:36:43;;;;;;;3.35;1.83;;;;;;;;;;5031813;28;20032;-77
2022/06/29 12:39:09;;;;;;;2.88;1.70;;;;;;;;;;5032617;28;20045;-73
2022/06/29 12:41:36;;;;;;;6.82;2.15;;;;;;;;;;5032446;28;20036;-73
2022/06/29 12:44:03;;;;;;;3.55;1.65;;;;;;;;;;5031202;28;20025;-74
2022/06/29 12:46:33;;;;;;;8.32;1.67;;;;;;;;;;5032493;28;20482;-75
2022/06/29 12:49:01;;;;;;;3.05;1.60;;;;;;;;;;5032803;28;20022;-74
2022/06/29 12:51:27;;;;;;;8.60;2.10;;;;;;;;;;5032273;28;20026;-74
2022/06/29 12:53:53;;;;;;;3.22;1.63;;;;;;;;;;5035395;28;20024;-75
2022/06/29 12:56:19;;;;;;;2.17;1.58;;;;;;;;;;5040790;28;20530;-77
2022/06/29 12:58:45;;;;;;;4.45;1.60;;;;;;;;;;5043121;28;20099;-79
2022/06/29 13:01:11;;;;;;;4.18;1.73;;;;;;;;;;5043383;28;20489;-78
2022/06/29 13:03:38;;;;;;;3.15;1.83;;;;;;;;;;5043185;28;20483;-79
2022/06/29 13:06:05;;;;;;;5.43;1.63;;;;;;;;;;5039273;28;20049;-76
2022/06/29 13:08:31;;;;;;;3.20;1.65;;;;;;;;;;5048076;28;20021;-75
2022/06/29 13:10:59;;;;;;;4.30;1.70;;;;;;;;;;5048671;28;20060;-73
2022/06/29 13:13:25;;;;;;;5.05;1.40;;;;;;;;;;5040983;28;20022;-73
2022/06/29 13:15:51;;;;;;;3.72;1.90;;;;;;;;;;5038150;28;20033;-74
2022/06/29 13:18:18;;;;;;;6.15;1.70;;;;;;;;;;5041656;28;20120;-77
2022/06/29 13:20:44;;;;;;;3.50;1.52;;;;;;;;;;5037815;28;20049;-76
2022/06/29 13:23:10;;;;;;;3.42;1.60;;;;;;;;;;5042645;28;20033;-76
2022/06/29 13:25:36;;;;;;;14.68;2.55;;;;;;;;;;5036730;28;20025;-76
2022/06/29 13:28:02;;;;;;;3.65;1.80;;;;;;;;;;5042615;28;20092;-78
2022/06/29 13:30:28;;;;;;;3.78;1.48;;;;;;;;;;5038749;28;20171;-77
2022/06/29 13:32:54;;;;;;;2.92;1.63;;;;;;;;;;5038619;28;20017;-77
2022/06/29 13:35:20;;;;;;;6.22;4.00;;;;;;;;;;5042124;28;20497;-76
2022/06/29 13:37:46;;;;;;;3.63;1.83;;;;;;;;;;5042909;28;20076;-74
2022/06/29 13:40:13;;;;;;;14.55;9.07;;;;;;;;;;5038075;28;20474;-75
2022/06/29 13:42:39;;;;;;;2.45;1.80;;;;;;;;;;5037414;28;20688;-74
2022/06/29 13:45:06;;;;;;;3.50;1.60;;;;;;;;;;5035894;28;20029;-76
2022/06/29 13:47:32;;;;;;;9.52;1.88;;;;;;;;;;5035745;28;20068;-77
2022/06/29 13:49:59;;;;;;;4.40;1.40;;;;;;;;;;5037592;28;20029;-76
2022/06/29 13:52:25;;;;;;;3.05;2.28;;;;;;;;;;5036409;28;20036;-77
2022/06/29 13:54:50;;;;;;;4.35;2.20;;;;;;;;;;5046619;28;20370;-76
2022/06/29 13:57:16;;;;;;;3.42;1.83;;;;;;;;;;5055674;28;20116;-76
2022/06/29 13:59:42;;;;;;;3.08;1.60;;;;;;;;;;5055695;28;20028;-78
2022/06/29 14:02:09;;;;;;;3.00;1.50;;;;;;;;;;5055522;28;20052;-77
2022/06/29 14:04:35;;;;;;;8.05;3.35;;;;;;;;;;5054828;28;20032;-75
2022/06/29 14:07:00;;;;;;;4.10;1.60;;;;;;;;;;5054422;28;20037;-75
2022/06/29 14:09:26;;;;;;;3.25;1.50;;;;;;;;;;5054609;28;20036;-75
2022/06/29 14:11:52;;;;;;;2.65;1.65;;;;;;;;;;5054884;28;20493;-75
2022/06/29 14:14:18;;;;;;;6.90;1.48;;;;;;;;;;5054842;28;20499;-74
2022/06/29 14:16:45;;;;;;;6.45;1.50;;;;;;;;;;5055005;28;20109;-74
2022/06/29 14:19:11;;;;;;;7.88;2.55;;;;;;;;;;5055464;28;20103;-74
2022/06/29 14:21:37;;;;;;;5.93;4.13;;;;;;;;;;5055244;28;20075;-76
2022/06/29 14:24:03;;;;;;;8.15;4.93;;;;;;;;;;5055740;28;20075;-75
2022/06/29 14:26:29;;;;;;;2.67;1.20;;;;;;;;;;5054721;28;20033;-74
2022/06/29 14:28:55;;;;;;;4.15;2.30;;;;;;;;;;5054639;28;20021;-75
2022/06/29 14:31:21;;;;;;;1.77;1.23;;;;;;;;;;5055351;28;20036;-75
2022/06/29 14:33:47;;;;;;;3.70;1.70;;;;;;;;;;5054007;28;20040;-76
2022/06/29 14:36:13;;;;;;;1.73;1.40;;;;;;;;;;5053565;28;20105;-74
2022/06/29 14:38:39;;;;;;;1.95;1.30;;;;;;;;;;5054903;28;20036;-74
2022/06/29 14:41:05;;;;;;;6.95;4.78;;;;;;;;;;5053334;28;20037;-74
2022/06/29 14:43:31;;;;;;;6.00;1.83;;;;;;;;;;5054880;28;20025;-74
2022/06/29 14:45:57;;;;;;;4.78;1.50;;;;;;;;;;5054877;28;20509;-75
2022/06/29 14:48:23;;;;;;;5.38;1.63;;;;;;;;;;5054688;28;20410;-75
2022/06/29 14:50:49;;;;;;;3.38;1.52;;;;;;;;;;5054801;28;20092;-75
2022/06/29 14:53:15;;;;;;;2.60;1.60;;;;;;;;;;5055094;28;20029;-77
2022/06/29 14:55:41;;;;;;;2.78;1.63;;;;;;;;;;5055594;28;20029;-75
2022/06/29 14:58:07;;;;;;;8.60;1.55;;;;;;;;;;5055331;28;20427;-75
2022/06/29 15:00:33;;;;;;;3.17;1.27;;;;;;;;;;5054541;28;20086;-75
2022/06/29 15:02:59;;;;;;;5.03;1.23;;;;;;;;;;5054575;28;20132;-74
2022/06/29 15:05:25;;;;;;;69.63;37.83;;;;;;;;;;5054064;28;20029;-75
2022/06/29 15:07:51;;;;;;;7.78;2.03;;;;;;;;;;5054339;28;20104;-74
2022/06/29 15:10:17;;;;;;;4.32;1.50;;;;;;;;;;5054990;28;20029;-75
2022/06/29 15:12:43;;;;;;;2.90;1.20;;;;;;;;;;5054841;28;20104;-77
2022/06/29 15:15:09;;;;;;;1.90;1.40;;;;;;;;;;5055990;28;20028;-76